LEGR/GRX METAR and TAF weather

Enter ICAO airport designator
Station Type Date Time Source
LEGR METAR 2019/12/06 09:00 UTC NOAA

LEGR 060900Z 00000KT 9999 FEW050 08/06 Q1021


Station Type Date Time Source
LEGR Decoded METAR 2019/12/06 09:00 UTC NOAA

Granada / Aeropuerto, Spain (LEGR) 37-11N 003-47W 570M
Dec 06, 2019 - 04:00 AM EST / 2019.12.06 0900 UTC
Wind: Calm:0
Visibility: greater than 7 mile(s):0
Sky conditions: mostly clear
Temperature: 46 F (8 C)
Dew Point: 42 F (6 C)
Relative Humidity: 87%
Pressure (altimeter): 30.15 in. Hg (1021 hPa)
ob: LEGR 060900Z 00000KT 9999 FEW050 08/06 Q1021
cycle: 9

Station Type Date Time Source
LEGR TAF 2019/12/06 09:27 UTC NOAA

TAF LEGR 060800Z 0609/0709 VRB02KT 9999 FEW040 TX16/0615Z TN02/0707Z

Example: see airport list